Time;durP1;ratioP1;P1;durP2;ratioP2;P2;SDS_P1;SDS_P2;PMS_P1;PMS_P2;Temp;Humidity;BMP_temperature;BMP_pressure;BME280_temperature;BME280_humidity;BME280_pressure;Samples;Min_cycle;Max_cycle;Signal;HPM_P1;HPM_P2
2022/04/13 00:02:02;;;;;;;0.40;0.30;;;;;;;10.39;49.22;101201.47;5135611;27;20449;-73
2022/04/13 00:04:30;;;;;;;0.40;0.30;;;;;;;10.38;49.98;101197.16;5135322;27;20442;-73
2022/04/13 00:06:57;;;;;;;0.40;0.30;;;;;;;10.38;49.89;101189.84;5135207;27;20478;-72
2022/04/13 00:09:24;;;;;;;0.40;0.30;;;;;;;10.45;50.00;101189.53;5135455;27;20435;-73
2022/04/13 00:11:52;;;;;;;0.40;0.30;;;;;;;10.39;49.60;101191.44;5135556;27;20446;-72
2022/04/13 00:14:22;;;;;;;10.90;8.40;;;;;;;10.35;49.79;101195.81;5135401;27;20446;-73
2022/04/13 00:16:48;;;;;;;0.40;0.30;;;;;;;10.33;49.53;101195.31;5135243;27;20478;-71
2022/04/13 00:19:15;;;;;;;0.40;0.30;;;;;;;10.36;49.87;101202.88;5135234;27;20501;-73
2022/04/13 00:21:43;;;;;;;0.40;0.30;;;;;;;10.33;50.16;101195.31;5135225;27;20477;-71
2022/04/13 00:24:11;;;;;;;0.40;0.30;;;;;;;10.32;50.51;101193.69;5135199;27;20839;-73
2022/04/13 00:26:37;;;;;;;0.40;0.30;;;;;;;10.31;50.64;101190.19;5134981;27;20466;-73
2022/04/13 00:29:04;;;;;;;0.40;0.30;;;;;;;10.30;50.67;101185.03;5134432;27;20435;-73
2022/04/13 00:31:30;;;;;;;7.97;7.33;;;;;;;10.30;50.33;101185.84;5134587;27;20932;-73
2022/04/13 00:33:57;;;;;;;0.50;0.40;;;;;;;10.32;49.44;101191.78;5135075;27;20442;-72
2022/04/13 00:36:24;;;;;;;5.57;2.67;;;;;;;10.30;50.31;101182.31;5134876;27;20454;-73
2022/04/13 00:38:51;;;;;;;0.40;0.30;;;;;;;10.20;50.33;101179.69;5134536;27;20944;-73
2022/04/13 00:41:18;;;;;;;0.40;0.40;;;;;;;10.16;50.55;101179.44;5134893;27;20442;-72
2022/04/13 00:43:44;;;;;;;0.40;0.30;;;;;;;10.15;50.52;101185.94;5134583;27;20817;-72
2022/04/13 00:46:11;;;;;;;0.40;0.30;;;;;;;10.02;50.81;101189.28;5134714;27;20463;-73
2022/04/13 00:48:40;;;;;;;0.87;0.87;;;;;;;9.86;51.04;101188.59;5135083;27;20439;-73
2022/04/13 00:51:07;;;;;;;0.40;0.40;;;;;;;9.85;51.24;101192.38;5134555;27;20946;-72
2022/04/13 00:53:35;;;;;;;0.40;0.30;;;;;;;9.75;51.43;101195.16;5134620;27;20454;-72
2022/04/13 00:56:04;;;;;;;0.40;0.30;;;;;;;9.71;52.10;101192.22;5134859;27;20467;-72
2022/04/13 00:58:33;;;;;;;0.40;0.30;;;;;;;9.71;52.06;101189.50;5134658;27;20431;-72
2022/04/13 01:01:03;;;;;;;3.40;3.17;;;;;;;9.74;53.04;101183.53;5135853;27;20479;-72
2022/04/13 01:03:31;;;;;;;0.40;0.30;;;;;;;9.75;52.80;101181.63;5134227;27;20951;-72
2022/04/13 01:05:57;;;;;;;0.63;0.63;;;;;;;9.76;52.90;101184.06;5134122;27;20994;-72
2022/04/13 01:08:28;;;;;;;0.40;0.30;;;;;;;9.84;52.68;101186.16;5134112;27;20453;-72
2022/04/13 01:10:55;;;;;;;0.63;0.60;;;;;;;9.84;52.92;101188.88;5134498;27;20526;-71
2022/04/13 01:13:23;;;;;;;0.40;0.30;;;;;;;9.84;52.36;101185.38;5134438;27;20443;-72
2022/04/13 01:15:49;;;;;;;0.40;0.30;;;;;;;9.81;52.71;101191.31;5134326;27;20562;-72
2022/04/13 01:18:18;;;;;;;0.73;0.70;;;;;;;9.80;52.75;101185.13;5134402;27;20454;-72
2022/04/13 01:20:52;;;;;;;0.40;0.30;;;;;;;9.80;52.89;101181.59;5133923;27;20527;-71
2022/04/13 01:23:20;;;;;;;0.40;0.30;;;;;;;9.83;52.95;101178.34;5133997;27;20942;-73
2022/04/13 01:25:48;;;;;;;0.40;0.30;;;;;;;9.82;53.41;101176.72;5134176;27;20481;-72
2022/04/13 01:28:14;;;;;;;0.40;0.30;;;;;;;9.77;53.59;101177.56;5134222;27;20447;-72
2022/04/13 01:30:41;;;;;;;0.40;0.30;;;;;;;9.72;53.44;101174.88;5134226;27;20431;-72
2022/04/13 01:33:08;;;;;;;0.40;0.30;;;;;;;9.71;52.72;101180.59;5133886;27;20968;-72
2022/04/13 01:35:34;;;;;;;0.40;0.30;;;;;;;9.62;52.55;101177.66;5134091;27;20462;-72
2022/04/13 01:38:01;;;;;;;0.40;0.30;;;;;;;9.51;52.70;101181.50;5134144;27;20443;-72
2022/04/13 01:40:29;;;;;;;0.40;0.30;;;;;;;9.43;53.26;101180.22;5134502;27;20477;-72
2022/04/13 01:42:56;;;;;;;0.40;0.30;;;;;;;9.39;53.63;101175.63;5138667;27;20446;-72
2022/04/13 01:45:22;;;;;;;0.40;0.20;;;;;;;9.38;53.29;101179.41;5138179;27;20519;-72
2022/04/13 01:47:49;;;;;;;0.40;0.30;;;;;;;9.37;53.86;101175.09;5137896;27;20816;-72
2022/04/13 01:50:16;;;;;;;0.40;0.30;;;;;;;9.30;53.86;101170.00;5138171;27;20438;-72
2022/04/13 01:52:43;;;;;;;0.40;0.30;;;;;;;9.27;54.77;101171.34;5138098;27;20866;-72
2022/04/13 01:55:10;;;;;;;0.40;0.30;;;;;;;9.31;54.54;101175.13;5138021;27;20446;-72
2022/04/13 01:57:38;;;;;;;0.40;0.30;;;;;;;9.28;54.50;101172.97;5138020;27;20434;-72
2022/04/13 02:00:07;;;;;;;0.40;0.30;;;;;;;9.31;54.66;101177.81;5137343;27;20478;-72
2022/04/13 02:02:33;;;;;;;0.40;0.30;;;;;;;9.39;54.94;101175.63;5137904;27;20441;-72
2022/04/13 02:05:00;;;;;;;0.40;0.30;;;;;;;9.39;54.99;101178.34;5137921;27;20463;-72
2022/04/13 02:07:27;;;;;;;0.40;0.30;;;;;;;9.38;55.09;101171.28;5137464;27;20450;-72
2022/04/13 02:09:54;;;;;;;0.40;0.30;;;;;;;9.35;55.60;101170.78;5137833;27;20812;-72
2022/04/13 02:12:20;;;;;;;3.17;2.97;;;;;;;9.25;55.08;101173.53;5137696;27;20442;-72
2022/04/13 02:14:48;;;;;;;0.40;0.30;;;;;;;9.31;55.35;101163.50;5137627;27;20441;-72
2022/04/13 02:17:16;;;;;;;1.23;1.03;;;;;;;9.35;55.67;101164.56;5137682;27;20447;-72
2022/04/13 02:19:43;;;;;;;0.40;0.40;;;;;;;9.36;55.43;101158.06;5137443;27;20478;-72
2022/04/13 02:22:10;;;;;;;2.87;2.77;;;;;;;9.32;55.69;101157.00;5137566;27;20445;-72
2022/04/13 02:24:38;;;;;;;0.40;0.30;;;;;;;9.28;56.43;101159.44;5137481;27;20433;-73
2022/04/13 02:27:05;;;;;;;0.60;0.60;;;;;;;9.25;56.22;101154.63;5137541;27;20438;-72
2022/04/13 02:29:32;;;;;;;2.30;2.10;;;;;;;9.19;55.26;101160.31;5137199;27;20816;-73
2022/04/13 02:31:59;;;;;;;0.40;0.30;;;;;;;9.10;55.83;101152.78;5137401;27;20447;-71
2022/04/13 02:34:26;;;;;;;0.40;0.30;;;;;;;8.98;55.90;101146.88;5137374;27;20438;-71
2022/04/13 02:36:52;;;;;;;0.50;0.40;;;;;;;8.93;56.13;101146.09;5137203;27;20470;-72
2022/04/13 02:39:18;;;;;;;0.40;0.23;;;;;;;8.92;56.05;101148.00;5137199;27;20434;-72
2022/04/13 02:41:45;;;;;;;1.43;1.03;;;;;;;8.86;56.44;101151.00;5137073;27;20477;-72
2022/04/13 02:44:11;;;;;;;1.80;1.70;;;;;;;8.80;56.68;101147.47;5137139;27;20443;-72
2022/04/13 02:46:38;;;;;;;0.60;0.60;;;;;;;8.83;56.90;101152.34;5137037;27;20461;-72
2022/04/13 02:49:05;;;;;;;0.40;0.30;;;;;;;8.86;56.98;101154.50;5137137;27;20449;-72
2022/04/13 02:51:32;;;;;;;0.40;0.30;;;;;;;8.83;57.49;101145.03;5136965;27;20438;-72
2022/04/13 02:53:58;;;;;;;0.40;0.30;;;;;;;8.89;57.39;101137.72;5136112;27;20446;-72
2022/04/13 02:56:25;;;;;;;0.40;0.30;;;;;;;8.90;57.03;101139.38;5136791;27;20469;-72
2022/04/13 02:58:51;;;;;;;0.50;0.40;;;;;;;8.91;57.67;101142.88;5136796;27;20450;-72
2022/04/13 03:01:17;;;;;;;7.70;2.73;;;;;;;8.87;57.48;101139.91;5136760;27;20486;-72
2022/04/13 03:03:44;;;;;;;0.40;0.30;;;;;;;8.98;57.81;101148.75;5136951;27;20488;-72
2022/04/13 03:06:12;;;;;;;1.07;0.97;;;;;;;8.95;58.37;101141.22;5136964;27;20466;-72
2022/04/13 03:08:38;;;;;;;0.40;0.30;;;;;;;8.89;58.31;101137.72;5136337;27;20458;-73
2022/04/13 03:11:05;;;;;;;0.40;0.20;;;;;;;8.92;58.69;101139.06;5136601;27;20488;-72
2022/04/13 03:13:32;;;;;;;1.07;1.07;;;;;;;8.92;58.62;101136.38;5136570;27;20790;-72
2022/04/13 03:15:58;;;;;;;0.40;0.30;;;;;;;8.92;58.92;101136.38;5136494;27;20462;-73
2022/04/13 03:18:25;;;;;;;10.30;6.53;;;;;;;8.89;59.07;101136.91;5136452;27;20499;-72
2022/04/13 03:20:51;;;;;;;0.40;0.30;;;;;;;8.81;59.39;101139.13;5136056;27;21017;-72
2022/04/13 03:23:19;;;;;;;0.40;0.30;;;;;;;8.83;58.50;101138.84;5136396;27;20438;-73
2022/04/13 03:25:45;;;;;;;0.40;0.30;;;;;;;8.72;58.21;101132.66;5135939;27;20466;-72
2022/04/13 03:28:12;;;;;;;0.40;0.30;;;;;;;8.73;57.88;101134.28;5136314;27;20434;-72
2022/04/13 03:30:38;;;;;;;0.40;0.30;;;;;;;8.66;57.94;101132.94;5135918;27;20855;-72
2022/04/13 03:33:04;;;;;;;0.40;0.30;;;;;;;8.51;58.63;101134.59;5136123;27;20449;-71
2022/04/13 03:35:31;;;;;;;0.40;0.30;;;;;;;8.54;58.34;101127.84;5135988;27;20474;-73
2022/04/13 03:37:57;;;;;;;0.50;0.40;;;;;;;8.51;58.23;101131.09;5135717;27;20446;-72
2022/04/13 03:40:26;;;;;;;0.40;0.30;;;;;;;8.47;58.79;101135.44;5135953;27;20535;-72
2022/04/13 03:42:52;;;;;;;0.40;0.30;;;;;;;8.45;58.72;101137.56;5135896;27;20435;-72
2022/04/13 03:45:19;;;;;;;0.40;0.30;;;;;;;8.42;59.25;101143.53;5135802;27;20458;-72
2022/04/13 03:47:45;;;;;;;0.40;0.30;;;;;;;8.46;60.04;101136.50;5135532;27;20961;-72
2022/04/13 03:50:12;;;;;;;0.40;0.30;;;;;;;8.44;60.08;101141.38;5135525;27;20936;-72
2022/04/13 03:52:39;;;;;;;1.07;1.07;;;;;;;8.53;60.37;101137.03;5135845;27;20443;-73
2022/04/13 03:55:08;;;;;;;0.40;0.30;;;;;;;8.56;60.15;101139.19;5135634;27;20825;-72
2022/04/13 03:57:36;;;;;;;0.40;0.30;;;;;;;8.57;60.31;101138.09;5135650;27;20442;-73
2022/04/13 04:00:03;;;;;;;0.40;0.30;;;;;;;8.55;60.49;101141.09;5135450;27;20875;-72
2022/04/13 04:02:30;;;;;;;1.80;1.70;;;;;;;8.58;60.35;101143.22;5135260;27;20447;-74
2022/04/13 04:04:56;;;;;;;0.40;0.30;;;;;;;8.52;60.80;101138.91;5135499;27;20458;-72
2022/04/13 04:07:23;;;;;;;0.40;0.30;;;;;;;8.54;61.16;101147.56;5135222;27;20458;-72
2022/04/13 04:09:50;;;;;;;0.40;0.30;;;;;;;8.56;61.64;101150.00;5135476;27;20495;-72
2022/04/13 04:12:17;;;;;;;0.40;0.30;;;;;;;8.55;61.44;101145.69;5135039;27;20474;-72
2022/04/13 04:14:44;;;;;;;0.40;0.30;;;;;;;8.53;61.55;101150.53;5135127;27;20451;-73
2022/04/13 04:17:11;;;;;;;0.40;0.30;;;;;;;8.57;62.09;101146.19;5135322;27;20446;-72
2022/04/13 04:19:37;;;;;;;0.40;0.30;;;;;;;8.52;61.65;101157.81;5134928;27;20932;-73
2022/04/13 04:22:04;;;;;;;0.70;0.70;;;;;;;8.44;60.96;101146.75;5135132;27;20531;-73
2022/04/13 04:24:31;;;;;;;0.60;0.60;;;;;;;8.45;60.61;101151.06;5135193;27;20438;-74
2022/04/13 04:26:57;;;;;;;0.40;0.30;;;;;;;8.29;61.32;101158.38;5135029;27;20470;-73
2022/04/13 04:29:24;;;;;;;0.40;0.30;;;;;;;8.26;61.22;101162.41;5135023;27;20446;-73
2022/04/13 04:31:53;;;;;;;0.70;0.70;;;;;;;8.24;60.91;101152.97;5135037;27;20472;-73
2022/04/13 04:34:21;;;;;;;0.40;0.30;;;;;;;8.20;61.89;101155.41;5135004;27;20446;-73
2022/04/13 04:36:47;;;;;;;0.40;0.30;;;;;;;8.18;61.78;101149.44;5134555;27;21014;-73
2022/04/13 04:39:14;;;;;;;0.40;0.30;;;;;;;8.19;61.56;101151.09;5134552;27;20815;-74
2022/04/13 04:41:41;;;;;;;0.40;0.30;;;;;;;8.28;62.71;101148.66;5134487;27;20557;-72
2022/04/13 04:44:08;;;;;;;2.30;2.20;;;;;;;8.36;63.17;101156.19;5134938;27;20486;-73
2022/04/13 04:46:34;;;;;;;0.40;0.30;;;;;;;8.41;63.92;101156.22;5134708;27;20462;-73
2022/04/13 04:49:02;;;;;;;0.40;0.30;;;;;;;8.49;64.51;101157.53;5135005;27;20438;-73
2022/04/13 04:51:30;;;;;;;0.40;0.30;;;;;;;8.53;63.77;101164.03;5134575;27;20920;-70
2022/04/13 04:53:57;;;;;;;0.40;0.30;;;;;;;8.53;63.07;101162.13;5134712;27;20437;-70
2022/04/13 04:56:23;;;;;;;0.40;0.30;;;;;;;8.61;63.55;101168.06;5134599;27;20458;-71
2022/04/13 04:58:50;;;;;;;1.43;1.33;;;;;;;8.65;62.73;101172.66;5134306;27;20854;-72
2022/04/13 05:01:16;;;;;;;0.40;0.30;;;;;;;8.74;62.77;101164.78;5134511;27;20552;-69
2022/04/13 05:03:48;;;;;;;0.40;0.30;;;;;;;8.80;62.77;101161.78;5134499;27;20438;-72
2022/04/13 05:06:21;;;;;;;0.40;0.30;;;;;;;8.85;61.90;101163.66;5134148;27;21042;-72
2022/04/13 05:08:47;;;;;;;0.40;0.30;;;;;;;8.91;62.32;101170.69;5134163;27;20518;-72
2022/04/13 05:11:14;;;;;;;0.60;0.40;;;;;;;8.98;62.38;101168.47;5134116;27;20438;-72
2022/04/13 05:13:40;;;;;;;0.40;0.30;;;;;;;9.06;63.09;101165.22;5134398;27;20503;-72
2022/04/13 05:16:07;;;;;;;0.40;0.27;;;;;;;9.05;62.35;101166.31;5133520;27;20976;-72
2022/04/13 05:18:33;;;;;;;0.40;0.30;;;;;;;9.09;62.14;101169.28;5134058;27;20943;-72
2022/04/13 05:21:00;;;;;;;0.40;0.30;;;;;;;9.01;60.55;101172.53;5133891;27;21000;-72
2022/04/13 05:23:28;;;;;;;0.40;0.30;;;;;;;8.97;60.94;101166.06;5134052;27;20434;-72
2022/04/13 05:25:54;;;;;;;0.40;0.30;;;;;;;9.04;60.36;101174.69;5134181;27;20447;-72
2022/04/13 05:28:20;;;;;;;0.40;0.30;;;;;;;9.13;60.66;101177.66;5134254;27;20809;-72
2022/04/13 05:30:47;;;;;;;0.50;0.40;;;;;;;9.13;60.91;101177.66;5134188;27;20438;-72
2022/04/13 05:33:13;;;;;;;0.40;0.30;;;;;;;9.12;61.21;101179.53;5134168;27;20443;-72
2022/04/13 05:35:41;;;;;;;0.40;0.30;;;;;;;9.21;60.96;101180.59;5133734;27;20512;-72
2022/04/13 05:38:08;;;;;;;0.40;0.30;;;;;;;9.37;61.63;101185.91;5134118;27;20438;-72
2022/04/13 05:40:35;;;;;;;0.40;0.30;;;;;;;9.50;61.08;101190.69;5134033;27;20465;-73
2022/04/13 05:43:02;;;;;;;0.77;0.77;;;;;;;9.65;60.03;101192.50;5134112;27;20442;-74
2022/04/13 05:45:28;;;;;;;1.47;1.37;;;;;;;9.72;60.56;101193.81;5134025;27;20471;-70
2022/04/13 05:47:55;;;;;;;0.40;0.30;;;;;;;9.81;60.54;101197.53;5133824;27;20442;-70
2022/04/13 05:50:21;;;;;;;0.40;0.30;;;;;;;9.81;60.52;101194.84;5134061;27;20436;-70
2022/04/13 05:52:48;;;;;;;0.40;0.40;;;;;;;9.95;58.61;101194.22;5133712;27;20443;-71
2022/04/13 05:55:14;;;;;;;0.40;0.30;;;;;;;10.04;58.45;101195.22;5136961;27;20983;-80
2022/04/13 05:57:42;;;;;;;0.40;0.30;;;;;;;10.15;58.59;101196.78;5143009;27;20443;-77
2022/04/13 06:00:11;;;;;;;0.40;0.30;;;;;;;10.21;58.78;101192.91;5138026;27;20447;-78
2022/04/13 06:02:38;;;;;;;1.70;1.60;;;;;;;10.26;57.09;101192.91;5137665;27;20518;-77
2022/04/13 06:05:05;;;;;;;1.50;1.40;;;;;;;10.36;57.00;101197.44;5134931;27;20503;-76
2022/04/13 06:07:31;;;;;;;0.40;0.30;;;;;;;10.42;57.43;101204.44;5135193;27;20463;-75
2022/04/13 06:10:01;;;;;;;0.70;0.70;;;;;;;10.44;56.51;101206.84;5137728;27;20438;-78
2022/04/13 06:12:28;;;;;;;0.40;0.30;;;;;;;10.51;56.44;101210.03;5137347;27;20442;-78
2022/04/13 06:15:03;;;;;;;0.40;0.30;;;;;;;10.59;55.88;101201.31;5137485;27;20466;-80
2022/04/13 06:17:29;;;;;;;0.40;0.30;;;;;;;10.47;55.41;101209.78;5135920;27;20411;-76
2022/04/13 06:19:56;;;;;;;0.40;0.30;;;;;;;10.58;55.86;101210.50;5135885;27;20438;-73
2022/04/13 06:22:22;;;;;;;0.40;0.30;;;;;;;10.66;55.46;101217.19;5133772;27;20493;-76
2022/04/13 06:24:51;;;;;;;0.40;0.30;;;;;;;10.71;54.90;101214.44;5134152;27;20451;-76
2022/04/13 06:27:18;;;;;;;0.40;0.33;;;;;;;10.71;54.92;101207.13;5134377;27;20476;-76
2022/04/13 06:29:44;;;;;;;0.40;0.30;;;;;;;10.68;54.84;101215.03;5137693;27;20962;-76
2022/04/13 06:32:15;;;;;;;0.40;0.30;;;;;;;10.74;55.43;101209.25;5138232;27;20438;-76
2022/04/13 06:34:42;;;;;;;0.40;0.30;;;;;;;10.76;56.14;101212.50;5137193;27;20442;-77
2022/04/13 06:37:08;;;;;;;0.40;0.30;;;;;;;10.88;56.63;101208.59;5138705;27;20434;-74
2022/04/13 06:39:35;;;;;;;0.40;0.30;;;;;;;10.95;56.74;101217.19;5137306;27;20454;-71
2022/04/13 06:42:01;;;;;;;0.40;0.30;;;;;;;10.95;56.04;101217.19;5136867;27;20474;-70
2022/04/13 06:44:28;;;;;;;0.40;0.30;;;;;;;11.08;56.15;101221.94;5136620;27;20939;-75
2022/04/13 06:46:55;;;;;;;0.40;0.30;;;;;;;11.12;55.58;101217.53;5136848;27;20463;-76
2022/04/13 06:49:23;;;;;;;0.40;0.30;;;;;;;11.18;55.25;101229.13;5137102;27;20525;-76
2022/04/13 06:51:49;;;;;;;0.40;0.30;;;;;;;11.25;55.11;101224.97;5136894;27;20447;-76
2022/04/13 06:54:15;;;;;;;0.40;0.30;;;;;;;11.37;54.78;101232.69;5137707;27;20447;-76
2022/04/13 06:56:42;;;;;;;0.40;0.30;;;;;;;11.43;54.61;101228.03;5136722;27;20451;-76
2022/04/13 06:59:08;;;;;;;0.40;0.30;;;;;;;11.46;54.60;101228.22;5136996;27;20819;-77
2022/04/13 07:01:35;;;;;;;1.90;1.80;;;;;;;11.38;54.25;101228.91;5136921;27;20485;-76
2022/04/13 07:04:01;;;;;;;3.23;3.03;;;;;;;11.45;54.56;101223.09;5136818;27;20446;-74
2022/04/13 07:06:29;;;;;;;0.40;0.33;;;;;;;11.51;54.15;101230.91;5136476;27;21030;-75
2022/04/13 07:08:56;;;;;;;0.40;0.30;;;;;;;11.47;52.86;101221.72;5137465;27;20801;-75
2022/04/13 07:11:23;;;;;;;0.87;0.87;;;;;;;11.60;53.18;101226.44;5138193;27;20521;-75
2022/04/13 07:13:49;;;;;;;0.40;0.30;;;;;;;11.71;53.42;101232.50;5137406;27;20441;-75
2022/04/13 07:16:16;;;;;;;0.67;0.67;;;;;;;11.81;53.05;101231.56;5136586;27;20458;-75
2022/04/13 07:18:42;;;;;;;0.40;0.30;;;;;;;11.94;53.33;101236.28;5136418;27;20442;-75
2022/04/13 07:21:09;;;;;;;0.40;0.30;;;;;;;12.13;52.52;101239.00;5136061;27;20534;-77
2022/04/13 07:23:37;;;;;;;0.40;0.30;;;;;;;12.26;52.43;101240.97;5136709;27;20530;-76
2022/04/13 07:26:03;;;;;;;0.40;0.30;;;;;;;12.42;52.86;101240.72;5135906;27;21066;-69
2022/04/13 07:28:30;;;;;;;0.70;0.70;;;;;;;12.53;51.58;101245.69;5136321;27;20446;-68
2022/04/13 07:30:56;;;;;;;0.40;0.30;;;;;;;12.64;52.02;101243.59;5135991;27;21006;-70
2022/04/13 07:33:23;;;;;;;0.40;0.30;;;;;;;12.80;52.15;101236.78;5136028;27;20931;-70
2022/04/13 07:35:49;;;;;;;0.40;0.30;;;;;;;12.94;51.56;101241.44;5136142;27;20458;-70
2022/04/13 07:38:16;;;;;;;0.50;0.50;;;;;;;13.05;49.99;101246.38;5135836;27;20449;-71
2022/04/13 07:40:44;;;;;;;0.40;0.30;;;;;;;13.12;50.15;101246.00;5135992;27;20450;-72
2022/04/13 07:43:11;;;;;;;0.40;0.30;;;;;;;13.22;50.75;101251.25;5135861;27;20855;-72
2022/04/13 07:45:38;;;;;;;0.40;0.30;;;;;;;13.26;49.99;101257.69;5135929;27;20498;-70
2022/04/13 07:48:05;;;;;;;0.40;0.30;;;;;;;13.33;49.69;101251.88;5135918;27;20502;-70
2022/04/13 07:50:32;;;;;;;0.40;0.30;;;;;;;13.45;48.43;101249.44;5135612;27;20457;-71
2022/04/13 07:52:58;;;;;;;0.40;0.30;;;;;;;13.59;48.96;101247.50;5135343;27;20984;-70
2022/04/13 07:55:25;;;;;;;0.40;0.40;;;;;;;13.70;49.41;101248.09;5135427;27;20477;-72
2022/04/13 07:57:53;;;;;;;0.40;0.33;;;;;;;13.75;48.91;101256.13;5136572;27;20499;-71
2022/04/13 08:00:19;;;;;;;1.47;1.37;;;;;;;13.73;49.24;101254.84;5135559;27;20512;-72
2022/04/13 08:02:46;;;;;;;0.40;0.30;;;;;;;13.95;48.29;101259.53;5135307;27;20527;-71
2022/04/13 08:05:14;;;;;;;0.40;0.40;;;;;;;14.05;47.51;101260.09;5135356;27;20469;-72
2022/04/13 08:07:40;;;;;;;2.67;2.47;;;;;;;14.11;47.82;101258.06;5135099;27;20450;-71
2022/04/13 08:10:07;;;;;;;0.40;0.30;;;;;;;14.20;47.04;101263.56;5134820;27;20936;-71
2022/04/13 08:12:34;;;;;;;0.40;0.30;;;;;;;14.33;46.30;101260.78;5135142;27;20431;-71
2022/04/13 08:15:05;;;;;;;0.40;0.20;;;;;;;14.39;47.04;101253.31;5135216;27;20465;-71
2022/04/13 08:17:31;;;;;;;0.40;0.20;;;;;;;14.44;46.55;101255.91;5135378;27;20442;-71
2022/04/13 08:19:57;;;;;;;0.40;0.30;;;;;;;14.44;47.22;101257.84;5135240;27;20449;-71
2022/04/13 08:22:24;;;;;;;0.40;0.30;;;;;;;14.38;47.87;101262.59;5135115;27;20483;-71
2022/04/13 08:24:51;;;;;;;0.40;0.30;;;;;;;14.31;47.72;101262.22;5134704;27;20951;-71
2022/04/13 08:27:17;;;;;;;0.50;0.50;;;;;;;14.42;47.33;101263.59;5135127;27;20435;-72
2022/04/13 08:29:45;;;;;;;0.63;0.63;;;;;;;14.35;47.64;101269.47;5134721;27;20981;-72
2022/04/13 08:32:12;;;;;;;0.70;0.70;;;;;;;14.42;47.29;101260.84;5134899;27;20446;-72
2022/04/13 08:34:39;;;;;;;0.40;0.30;;;;;;;14.50;47.27;101257.41;5134860;27;20442;-72
2022/04/13 08:37:06;;;;;;;0.40;0.20;;;;;;;14.59;47.05;101265.66;5134820;27;20487;-72
2022/04/13 08:39:32;;;;;;;0.40;0.30;;;;;;;14.61;47.49;101260.72;5134569;27;21030;-72
2022/04/13 08:42:06;;;;;;;0.40;0.30;;;;;;;14.59;47.29;101260.19;5134503;27;20486;-71
2022/04/13 08:44:43;;;;;;;0.40;0.30;;;;;;;14.65;47.09;101258.94;5134844;27;20466;-72
2022/04/13 08:47:15;;;;;;;0.40;0.30;;;;;;;14.84;46.42;101256.81;5134770;27;20434;-72
2022/04/13 08:49:44;;;;;;;0.40;0.20;;;;;;;14.89;47.22;101245.78;5134247;27;20802;-72
2022/04/13 08:52:14;;;;;;;0.40;0.30;;;;;;;15.05;47.61;101259.81;5134261;27;20529;-72
2022/04/13 08:54:46;;;;;;;0.40;0.20;;;;;;;15.18;46.59;101249.09;5134209;27;20911;-72
2022/04/13 08:57:17;;;;;;;0.40;0.30;;;;;;;15.41;46.17;101252.56;5134310;27;20798;-72
2022/04/13 08:59:51;;;;;;;0.40;0.30;;;;;;;15.54;46.38;101243.44;5134312;27;20908;-72
2022/04/13 09:02:37;;;;;;;1.53;0.30;;;;;;;15.54;46.47;101240.72;5134252;27;21036;-71
2022/04/13 09:05:10;;;;;;;0.50;0.30;;;;;;;15.64;45.99;101243.16;5134465;27;20512;-72
2022/04/13 09:07:37;;;;;;;0.50;0.40;;;;;;;15.72;46.34;101234.19;5134109;27;20475;-72
2022/04/13 09:10:10;;;;;;;0.50;0.30;;;;;;;15.76;45.66;101228.84;5134412;27;20441;-72
2022/04/13 09:12:37;;;;;;;0.50;0.30;;;;;;;15.94;45.91;101229.66;5134467;27;20518;-72
2022/04/13 09:15:05;;;;;;;0.50;0.30;;;;;;;16.18;44.86;101223.72;5134272;27;20460;-71
2022/04/13 09:17:33;;;;;;;0.50;0.30;;;;;;;16.26;44.64;101229.19;5134264;27;20438;-72
2022/04/13 09:20:01;;;;;;;1.37;1.27;;;;;;;16.36;45.37;101230.78;5133924;27;20927;-72
2022/04/13 09:22:29;;;;;;;0.40;0.30;;;;;;;16.44;45.56;101226.44;5134113;27;20478;-72
2022/04/13 09:24:57;;;;;;;0.40;0.30;;;;;;;16.59;44.88;101231.38;5134425;27;20846;-71
2022/04/13 09:27:25;;;;;;;0.40;0.30;;;;;;;16.65;44.29;101246.50;5134305;27;20446;-72
2022/04/13 09:29:51;;;;;;;0.50;0.40;;;;;;;16.79;42.98;101244.41;5134239;27;20442;-72
2022/04/13 09:32:18;;;;;;;3.40;3.20;;;;;;;16.84;43.54;101230.53;5133910;27;20481;-71
2022/04/13 09:34:46;;;;;;;0.73;0.73;;;;;;;16.94;43.42;101239.50;5134107;27;20876;-73
2022/04/13 09:37:14;;;;;;;0.40;0.30;;;;;;;16.99;43.07;101231.91;5134172;27;20446;-72
2022/04/13 09:39:42;;;;;;;0.40;0.30;;;;;;;17.00;44.32;101228.06;5134068;27;20435;-71
2022/04/13 09:42:13;;;;;;;0.40;0.30;;;;;;;16.90;43.28;101234.69;5133898;27;21063;-73
2022/04/13 09:44:41;;;;;;;35.27;0.77;;;;;;;16.94;44.14;101229.38;5134089;27;20423;-72
2022/04/13 09:47:08;;;;;;;0.40;0.30;;;;;;;16.98;43.92;101224.84;5134050;27;20434;-74
2022/04/13 09:49:35;;;;;;;0.50;0.40;;;;;;;17.10;43.84;101232.38;5134076;27;20450;-73
2022/04/13 09:52:03;;;;;;;0.40;0.30;;;;;;;17.20;43.96;101225.72;5133960;27;20467;-73
2022/04/13 09:54:30;;;;;;;0.40;0.30;;;;;;;17.30;43.03;101223.38;5133880;27;20442;-74
2022/04/13 09:56:56;;;;;;;0.40;0.30;;;;;;;17.49;41.53;101222.19;5133530;27;20954;-73
2022/04/13 09:59:26;;;;;;;0.40;0.30;;;;;;;17.66;42.36;101222.03;5133952;27;20474;-74
2022/04/13 10:01:53;;;;;;;0.40;0.30;;;;;;;17.78;41.82;101224.88;5135529;27;20454;-74
2022/04/13 10:04:27;;;;;;;0.40;0.23;;;;;;;17.95;41.70;101228.63;5137980;27;20450;-74
2022/04/13 10:06:54;;;;;;;0.40;0.20;;;;;;;18.05;41.97;101222.75;5137631;27;20466;-73
2022/04/13 10:09:23;;;;;;;0.40;0.30;;;;;;;18.18;40.84;101218.09;5138046;27;20502;-73
2022/04/13 10:12:01;;;;;;;0.40;0.20;;;;;;;18.17;41.15;101222.00;5137961;27;20434;-72
2022/04/13 10:14:27;;;;;;;0.40;0.30;;;;;;;18.12;41.24;101228.50;5137940;27;20438;-74
2022/04/13 10:16:56;;;;;;;0.40;0.30;;;;;;;18.17;41.65;101220.06;5139472;27;20458;-79
2022/04/13 10:19:23;;;;;;;0.40;0.30;;;;;;;18.26;41.21;101220.78;5141395;27;20465;-80
2022/04/13 10:21:51;;;;;;;0.40;0.30;;;;;;;18.41;40.28;101222.06;5141127;27;20431;-79
2022/04/13 10:24:27;;;;;;;0.40;0.30;;;;;;;18.63;40.42;101220.88;5141472;27;20492;-79
2022/04/13 10:27:01;;;;;;;0.40;0.30;;;;;;;18.80;40.58;101220.69;5142430;27;20461;-80
2022/04/13 10:29:28;;;;;;;0.40;0.30;;;;;;;18.92;40.10;101219.94;5139599;27;20491;-80
2022/04/13 10:32:06;;;;;;;0.40;0.30;;;;;;;18.97;41.57;101224.38;5139071;27;20928;-78
2022/04/13 10:34:34;;;;;;;0.40;0.30;;;;;;;19.10;41.79;101217.75;5139608;27;20446;-76
2022/04/13 10:37:01;;;;;;;1.43;1.33;;;;;;;19.32;40.73;101214.53;5140634;27;21010;-80
2022/04/13 10:39:30;;;;;;;0.40;0.30;;;;;;;19.40;40.27;101216.38;5142402;27;20445;-80
2022/04/13 10:41:57;;;;;;;0.40;0.30;;;;;;;19.58;40.50;101211.41;5141586;27;20443;-77
2022/04/13 10:44:29;;;;;;;0.40;0.30;;;;;;;19.79;39.15;101211.28;5139451;27;20489;-76
2022/04/13 10:47:00;;;;;;;0.40;0.20;;;;;;;20.01;39.23;101217.38;5138680;27;20496;-76
2022/04/13 10:49:30;;;;;;;0.40;0.30;;;;;;;19.99;38.53;101208.69;5144601;27;20419;-81
2022/04/13 10:52:07;;;;;;;0.40;0.30;;;;;;;20.15;39.18;101212.31;5148961;27;20805;-80
2022/04/13 10:54:37;;;;;;;0.40;0.30;;;;;;;20.35;37.35;101216.78;5147068;27;20427;-80
2022/04/13 10:57:06;;;;;;;0.40;0.30;;;;;;;20.59;38.56;101217.84;5147051;27;20442;-80
2022/04/13 10:59:37;;;;;;;0.40;0.30;;;;;;;20.74;37.67;101206.03;5141482;27;20454;-78
2022/04/13 11:02:07;;;;;;;0.40;0.30;;;;;;;20.85;36.71;101209.88;5135401;27;20455;-79
2022/04/13 11:04:34;;;;;;;0.40;0.30;;;;;;;21.00;36.78;101207.47;5128447;28;20454;-80
2022/04/13 11:07:02;;;;;;;0.40;0.30;;;;;;;21.01;37.01;101198.81;5127031;28;20474;-81
2022/04/13 11:09:31;;;;;;;0.73;0.73;;;;;;;21.04;37.01;101206.38;5127124;28;20447;-79
2022/04/13 11:12:01;;;;;;;0.40;0.30;;;;;;;21.24;36.89;101196.22;5127578;28;20440;-81
2022/04/13 11:14:27;;;;;;;0.40;0.30;;;;;;;21.49;36.71;101193.25;5125741;28;20447;-80
2022/04/13 11:17:25;;;;;;;0.40;0.30;;;;;;;22.16;36.69;101210.44;5128335;28;20474;-80
2022/04/13 11:19:51;;;;;;;0.40;0.30;;;;;;;22.73;34.56;101211.50;5129509;28;20424;-81
2022/04/13 11:22:19;;;;;;;0.40;0.30;;;;;;;23.46;33.51;101205.91;5127399;28;20458;-80
2022/04/13 11:24:56;;;;;;;0.40;0.20;;;;;;;24.05;32.77;101209.88;5127651;27;20447;-80
2022/04/13 11:27:25;;;;;;;0.40;0.30;;;;;;;25.05;32.21;101213.63;5127512;28;20427;-80
2022/04/13 11:30:00;;;;;;;0.40;0.30;;;;;;;25.47;30.58;101209.59;5125779;28;20440;-80
2022/04/13 11:32:29;;;;;;;0.40;0.20;;;;;;;26.08;30.89;101213.47;5127059;28;20505;-80